sensor_id;sensor_type;location;lat;lon;timestamp;pressure;altitude;pressure_sealevel;temperature;humidity
13767;BME280;47980;48.794;9.176;2023-02-23T00:02:20;97913.13;;;10.50;83.40
13767;BME280;47980;48.794;9.176;2023-02-23T00:04:52;97916.75;;;10.45;82.30
13767;BME280;47980;48.794;9.176;2023-02-23T00:07:23;97910.59;;;10.53;81.62
13767;BME280;47980;48.794;9.176;2023-02-23T00:09:56;97914.34;;;10.52;82.31
13767;BME280;47980;48.794;9.176;2023-02-23T00:12:27;97908.13;;;10.48;82.96
13767;BME280;47980;48.794;9.176;2023-02-23T00:15:00;97910.91;;;10.52;82.75
13767;BME280;47980;48.794;9.176;2023-02-23T00:17:32;97904.28;;;10.46;81.45
13767;BME280;47980;48.794;9.176;2023-02-23T00:20:10;97903.19;;;10.47;82.34
13767;BME280;47980;48.794;9.176;2023-02-23T00:22:41;97902.72;;;10.45;82.74
13767;BME280;47980;48.794;9.176;2023-02-23T00:25:13;97909.00;;;10.40;85.53
13767;BME280;47980;48.794;9.176;2023-02-23T00:27:47;97904.34;;;10.37;86.13
13767;BME280;47980;48.794;9.176;2023-02-23T00:30:20;97904.47;;;10.41;84.70
13767;BME280;47980;48.794;9.176;2023-02-23T00:32:54;97904.34;;;10.37;85.76
13767;BME280;47980;48.794;9.176;2023-02-23T00:35:25;97911.53;;;10.36;85.82
13767;BME280;47980;48.794;9.176;2023-02-23T00:37:57;97909.66;;;10.37;88.93
13767;BME280;47980;48.794;9.176;2023-02-23T00:40:28;97913.84;;;10.38;89.50
13767;BME280;47980;48.794;9.176;2023-02-23T00:43:00;97908.78;;;10.33;90.40
13767;BME280;47980;48.794;9.176;2023-02-23T00:45:33;97913.66;;;10.10;93.07
13767;BME280;47980;48.794;9.176;2023-02-23T00:48:05;97906.78;;;10.09;92.46
13767;BME280;47980;48.794;9.176;2023-02-23T00:50:39;97908.47;;;10.13;93.99
13767;BME280;47980;48.794;9.176;2023-02-23T00:53:11;97903.09;;;10.01;94.33
13767;BME280;47980;48.794;9.176;2023-02-23T00:55:43;97904.22;;;10.00;97.55
13767;BME280;47980;48.794;9.176;2023-02-23T00:58:14;97898.44;;;9.98;98.97
13767;BME280;47980;48.794;9.176;2023-02-23T01:00:47;97900.16;;;9.82;98.26
13767;BME280;47980;48.794;9.176;2023-02-23T01:03:19;97893.59;;;10.00;96.97
13767;BME280;47980;48.794;9.176;2023-02-23T01:05:50;97894.47;;;9.92;97.53
13767;BME280;47980;48.794;9.176;2023-02-23T01:08:24;97901.53;;;9.88;99.63
13767;BME280;47980;48.794;9.176;2023-02-23T01:10:57;97899.16;;;10.07;96.50
13767;BME280;47980;48.794;9.176;2023-02-23T01:13:29;97901.03;;;10.07;98.11
13767;BME280;47980;48.794;9.176;2023-02-23T01:16:04;97892.06;;;9.99;99.70
13767;BME280;47980;48.794;9.176;2023-02-23T01:18:37;97896.00;;;9.93;100.00
13767;BME280;47980;48.794;9.176;2023-02-23T01:21:13;97896.13;;;9.97;100.00
13767;BME280;47980;48.794;9.176;2023-02-23T01:23:46;97894.78;;;9.91;100.00
13767;BME280;47980;48.794;9.176;2023-02-23T01:26:19;97896.78;;;9.94;100.00
13767;BME280;47980;48.794;9.176;2023-02-23T01:28:53;97891.69;;;9.88;100.00
13767;BME280;47980;48.794;9.176;2023-02-23T01:31:27;97888.56;;;9.86;100.00
13767;BME280;47980;48.794;9.176;2023-02-23T01:34:00;97893.97;;;9.78;100.00
13767;BME280;47980;48.794;9.176;2023-02-23T01:36:34;97892.16;;;9.70;100.00
13767;BME280;47980;48.794;9.176;2023-02-23T01:39:10;97895.72;;;9.74;100.00
13767;BME280;47980;48.794;9.176;2023-02-23T01:41:43;97887.00;;;9.73;100.00
13767;BME280;47980;48.794;9.176;2023-02-23T01:47:25;97886.78;;;9.78;100.00
13767;BME280;47980;48.794;9.176;2023-02-23T01:49:57;97881.16;;;9.80;100.00
13767;BME280;47980;48.794;9.176;2023-02-23T01:52:28;97882.59;;;9.77;100.00
13767;BME280;47980;48.794;9.176;2023-02-23T01:55:00;97878.72;;;9.75;100.00
13767;BME280;47980;48.794;9.176;2023-02-23T01:57:32;97869.53;;;9.72;100.00
13767;BME280;47980;48.794;9.176;2023-02-23T02:00:04;97876.06;;;9.75;100.00
13767;BME280;47980;48.794;9.176;2023-02-23T02:02:43;97877.81;;;9.71;100.00
13767;BME280;47980;48.794;9.176;2023-02-23T02:05:15;97876.81;;;9.75;100.00
13767;BME280;47980;48.794;9.176;2023-02-23T02:07:49;97878.84;;;9.78;100.00
13767;BME280;47980;48.794;9.176;2023-02-23T02:10:27;97876.53;;;9.77;100.00
13767;BME280;47980;48.794;9.176;2023-02-23T02:13:19;97872.69;;;9.65;100.00
13767;BME280;47980;48.794;9.176;2023-02-23T02:16:10;97871.47;;;9.63;100.00
13767;BME280;47980;48.794;9.176;2023-02-23T02:28:28;97866.22;;;9.75;100.00
13767;BME280;47980;48.794;9.176;2023-02-23T02:34:51;97863.97;;;9.65;100.00
13767;BME280;47980;48.794;9.176;2023-02-23T02:37:41;97863.53;;;9.63;100.00
13767;BME280;47980;48.794;9.176;2023-02-23T02:40:21;97857.97;;;9.77;100.00
13767;BME280;47980;48.794;9.176;2023-02-23T02:43:00;97857.19;;;9.76;100.00
13767;BME280;47980;48.794;9.176;2023-02-23T02:45:47;97858.66;;;9.86;100.00
13767;BME280;47980;48.794;9.176;2023-02-23T02:48:26;97850.25;;;9.84;100.00
13767;BME280;47980;48.794;9.176;2023-02-23T02:51:05;97851.25;;;9.79;100.00
13767;BME280;47980;48.794;9.176;2023-02-23T02:53:45;97856.63;;;9.71;100.00
13767;BME280;47980;48.794;9.176;2023-02-23T02:56:21;97853.72;;;9.63;100.00
13767;BME280;47980;48.794;9.176;2023-02-23T02:58:54;97844.75;;;9.56;100.00
13767;BME280;47980;48.794;9.176;2023-02-23T03:01:29;97849.72;;;9.57;100.00
13767;BME280;47980;48.794;9.176;2023-02-23T03:04:20;97844.53;;;9.61;100.00
13767;BME280;47980;48.794;9.176;2023-02-23T03:07:15;97849.66;;;9.66;100.00
13767;BME280;47980;48.794;9.176;2023-02-23T03:10:13;97845.75;;;9.84;100.00
13767;BME280;47980;48.794;9.176;2023-02-23T03:13:16;97852.03;;;9.59;100.00
13767;BME280;47980;48.794;9.176;2023-02-23T03:16:14;97845.06;;;9.54;100.00
13767;BME280;47980;48.794;9.176;2023-02-23T03:19:13;97847.66;;;9.42;100.00
13767;BME280;47980;48.794;9.176;2023-02-23T03:22:12;97846.16;;;9.32;100.00
13767;BME280;47980;48.794;9.176;2023-02-23T03:25:10;97849.44;;;9.50;100.00
13767;BME280;47980;48.794;9.176;2023-02-23T03:28:09;97848.81;;;9.53;100.00
13767;BME280;47980;48.794;9.176;2023-02-23T03:31:06;97847.91;;;9.49;100.00
13767;BME280;47980;48.794;9.176;2023-02-23T03:34:02;97855.31;;;9.35;100.00
13767;BME280;47980;48.794;9.176;2023-02-23T03:37:02;97854.47;;;9.43;100.00
13767;BME280;47980;48.794;9.176;2023-02-23T03:40:01;97859.53;;;9.57;100.00
13767;BME280;47980;48.794;9.176;2023-02-23T03:42:56;97857.13;;;9.64;100.00
13767;BME280;47980;48.794;9.176;2023-02-23T03:45:48;97855.59;;;9.63;100.00
13767;BME280;47980;48.794;9.176;2023-02-23T03:48:39;97856.38;;;9.63;100.00
13767;BME280;47980;48.794;9.176;2023-02-23T03:51:33;97852.31;;;9.66;100.00
13767;BME280;47980;48.794;9.176;2023-02-23T03:54:26;97854.81;;;9.62;100.00
13767;BME280;47980;48.794;9.176;2023-02-23T03:57:16;97854.75;;;9.71;100.00
13767;BME280;47980;48.794;9.176;2023-02-23T04:00:11;97856.81;;;9.65;100.00
13767;BME280;47980;48.794;9.176;2023-02-23T04:03:04;97856.19;;;9.48;100.00
13767;BME280;47980;48.794;9.176;2023-02-23T04:05:56;97855.59;;;9.42;100.00
13767;BME280;47980;48.794;9.176;2023-02-23T04:08:47;97856.72;;;9.32;100.00
13767;BME280;47980;48.794;9.176;2023-02-23T04:11:44;97852.56;;;9.52;100.00
13767;BME280;47980;48.794;9.176;2023-02-23T04:14:38;97856.09;;;9.56;100.00
13767;BME280;47980;48.794;9.176;2023-02-23T04:17:13;97857.00;;;9.60;100.00
13767;BME280;47980;48.794;9.176;2023-02-23T04:19:51;97855.00;;;9.57;100.00
13767;BME280;47980;48.794;9.176;2023-02-23T04:22:24;97860.63;;;9.56;100.00
13767;BME280;47980;48.794;9.176;2023-02-23T04:24:55;97857.22;;;9.55;100.00
13767;BME280;47980;48.794;9.176;2023-02-23T04:27:27;97857.34;;;9.38;100.00
13767;BME280;47980;48.794;9.176;2023-02-23T04:29:58;97854.03;;;9.20;100.00
13767;BME280;47980;48.794;9.176;2023-02-23T04:32:32;97861.38;;;9.35;100.00
13767;BME280;47980;48.794;9.176;2023-02-23T04:35:04;97854.03;;;9.41;100.00
13767;BME280;47980;48.794;9.176;2023-02-23T04:37:35;97858.03;;;9.47;100.00
13767;BME280;47980;48.794;9.176;2023-02-23T04:40:08;97858.16;;;9.51;100.00
13767;BME280;47980;48.794;9.176;2023-02-23T04:42:40;97860.50;;;9.52;100.00
13767;BME280;47980;48.794;9.176;2023-02-23T04:45:12;97854.88;;;9.54;100.00
13767;BME280;47980;48.794;9.176;2023-02-23T04:47:45;97861.84;;;9.58;100.00
13767;BME280;47980;48.794;9.176;2023-02-23T04:50:17;97858.28;;;9.54;100.00
13767;BME280;47980;48.794;9.176;2023-02-23T04:52:49;97867.94;;;9.59;100.00
13767;BME280;47980;48.794;9.176;2023-02-23T04:55:23;97871.03;;;9.61;100.00
13767;BME280;47980;48.794;9.176;2023-02-23T04:57:56;97864.81;;;9.57;100.00
13767;BME280;47980;48.794;9.176;2023-02-23T05:00:29;97861.25;;;9.32;100.00
13767;BME280;47980;48.794;9.176;2023-02-23T05:03:04;97867.97;;;9.29;100.00
13767;BME280;47980;48.794;9.176;2023-02-23T05:05:35;97868.75;;;9.00;100.00
13767;BME280;47980;48.794;9.176;2023-02-23T05:08:08;97870.72;;;8.82;100.00
13767;BME280;47980;48.794;9.176;2023-02-23T05:10:39;97867.13;;;8.87;100.00
13767;BME280;47980;48.794;9.176;2023-02-23T05:13:11;97870.31;;;9.01;100.00
13767;BME280;47980;48.794;9.176;2023-02-23T05:15:42;97868.81;;;8.91;100.00
13767;BME280;47980;48.794;9.176;2023-02-23T05:18:15;97866.22;;;9.12;100.00
13767;BME280;47980;48.794;9.176;2023-02-23T05:20:47;97864.81;;;9.15;100.00
13767;BME280;47980;48.794;9.176;2023-02-23T05:23:19;97868.56;;;9.35;100.00
13767;BME280;47980;48.794;9.176;2023-02-23T05:25:51;97869.72;;;9.46;100.00
13767;BME280;47980;48.794;9.176;2023-02-23T05:28:23;97872.97;;;9.52;100.00
13767;BME280;47980;48.794;9.176;2023-02-23T05:30:54;97869.66;;;9.55;100.00
13767;BME280;47980;48.794;9.176;2023-02-23T05:33:27;97861.72;;;9.55;100.00
13767;BME280;47980;48.794;9.176;2023-02-23T05:35:59;97874.78;;;9.60;100.00
13767;BME280;47980;48.794;9.176;2023-02-23T05:38:31;97869.78;;;9.58;100.00
13767;BME280;47980;48.794;9.176;2023-02-23T05:41:06;97871.03;;;9.61;100.00
13767;BME280;47980;48.794;9.176;2023-02-23T05:43:37;97872.56;;;9.62;100.00
13767;BME280;47980;48.794;9.176;2023-02-23T05:46:11;97871.63;;;9.67;100.00
13767;BME280;47980;48.794;9.176;2023-02-23T05:48:44;97878.31;;;9.64;100.00
13767;BME280;47980;48.794;9.176;2023-02-23T05:51:16;97879.81;;;9.53;100.00
13767;BME280;47980;48.794;9.176;2023-02-23T05:53:48;97877.97;;;9.65;100.00
13767;BME280;47980;48.794;9.176;2023-02-23T05:56:20;97873.72;;;9.31;100.00
13767;BME280;47980;48.794;9.176;2023-02-23T05:58:54;97873.66;;;9.40;100.00
13767;BME280;47980;48.794;9.176;2023-02-23T06:01:27;97865.66;;;9.49;100.00
13767;BME280;47980;48.794;9.176;2023-02-23T06:04:00;97870.00;;;9.53;100.00
13767;BME280;47980;48.794;9.176;2023-02-23T06:06:31;97870.59;;;9.59;100.00
13767;BME280;47980;48.794;9.176;2023-02-23T06:09:03;97880.72;;;9.57;100.00
13767;BME280;47980;48.794;9.176;2023-02-23T06:11:35;97880.50;;;9.62;100.00
13767;BME280;47980;48.794;9.176;2023-02-23T06:14:06;97876.66;;;9.59;100.00
13767;BME280;47980;48.794;9.176;2023-02-23T06:16:38;97874.19;;;9.54;100.00
13767;BME280;47980;48.794;9.176;2023-02-23T06:19:11;97879.94;;;9.56;100.00
13767;BME280;47980;48.794;9.176;2023-02-23T06:21:42;97880.38;;;9.58;100.00
13767;BME280;47980;48.794;9.176;2023-02-23T06:24:14;97888.00;;;9.60;100.00
13767;BME280;47980;48.794;9.176;2023-02-23T06:26:45;97890.16;;;9.67;100.00
13767;BME280;47980;48.794;9.176;2023-02-23T06:29:17;97887.63;;;9.49;100.00
13767;BME280;47980;48.794;9.176;2023-02-23T06:31:48;97895.63;;;9.61;100.00
13767;BME280;47980;48.794;9.176;2023-02-23T06:34:21;97891.44;;;9.60;100.00
13767;BME280;47980;48.794;9.176;2023-02-23T06:36:53;97895.44;;;9.67;100.00
13767;BME280;47980;48.794;9.176;2023-02-23T06:39:24;97901.19;;;9.69;100.00
13767;BME280;47980;48.794;9.176;2023-02-23T06:41:56;97893.84;;;9.74;100.00
13767;BME280;47980;48.794;9.176;2023-02-23T06:44:28;97898.03;;;9.75;100.00
13767;BME280;47980;48.794;9.176;2023-02-23T06:46:59;97904.44;;;9.74;100.00
13767;BME280;47980;48.794;9.176;2023-02-23T06:49:32;97900.22;;;9.73;100.00
13767;BME280;47980;48.794;9.176;2023-02-23T06:52:04;97907.25;;;9.69;100.00
13767;BME280;47980;48.794;9.176;2023-02-23T06:54:35;97911.66;;;9.65;100.00
13767;BME280;47980;48.794;9.176;2023-02-23T06:57:09;97909.34;;;9.63;100.00
13767;BME280;47980;48.794;9.176;2023-02-23T06:59:40;97918.94;;;9.68;100.00
13767;BME280;47980;48.794;9.176;2023-02-23T07:02:12;97912.16;;;9.79;100.00
13767;BME280;47980;48.794;9.176;2023-02-23T07:04:45;97917.03;;;9.77;100.00
13767;BME280;47980;48.794;9.176;2023-02-23T07:07:17;97921.34;;;9.82;100.00
13767;BME280;47980;48.794;9.176;2023-02-23T07:09:49;97919.94;;;9.84;100.00
13767;BME280;47980;48.794;9.176;2023-02-23T07:12:20;97917.84;;;9.90;100.00
13767;BME280;47980;48.794;9.176;2023-02-23T07:14:52;97918.75;;;9.94;100.00
13767;BME280;47980;48.794;9.176;2023-02-23T07:17:23;97933.09;;;9.93;100.00
13767;BME280;47980;48.794;9.176;2023-02-23T07:19:59;97921.22;;;9.99;100.00
13767;BME280;47980;48.794;9.176;2023-02-23T07:22:30;97927.16;;;9.96;100.00
13767;BME280;47980;48.794;9.176;2023-02-23T07:25:04;97929.22;;;10.11;100.00
13767;BME280;47980;48.794;9.176;2023-02-23T07:27:36;97930.97;;;10.28;100.00
13767;BME280;47980;48.794;9.176;2023-02-23T07:30:08;97939.84;;;10.24;100.00
13767;BME280;47980;48.794;9.176;2023-02-23T07:32:40;97936.94;;;10.38;100.00
13767;BME280;47980;48.794;9.176;2023-02-23T07:35:13;97940.53;;;10.54;100.00
13767;BME280;47980;48.794;9.176;2023-02-23T07:37:45;97942.91;;;10.80;100.00
13767;BME280;47980;48.794;9.176;2023-02-23T07:40:17;97943.47;;;10.85;100.00
13767;BME280;47980;48.794;9.176;2023-02-23T07:42:49;97942.72;;;10.97;100.00
13767;BME280;47980;48.794;9.176;2023-02-23T07:45:21;97942.19;;;11.04;100.00
13767;BME280;47980;48.794;9.176;2023-02-23T07:47:54;97943.59;;;11.14;100.00
13767;BME280;47980;48.794;9.176;2023-02-23T07:50:27;97938.53;;;11.21;100.00
13767;BME280;47980;48.794;9.176;2023-02-23T07:52:58;97945.03;;;11.36;100.00
13767;BME280;47980;48.794;9.176;2023-02-23T07:55:30;97939.03;;;11.51;100.00
13767;BME280;47980;48.794;9.176;2023-02-23T07:58:01;97950.03;;;11.49;100.00
13767;BME280;47980;48.794;9.176;2023-02-23T08:00:34;97944.47;;;11.54;100.00
13767;BME280;47980;48.794;9.176;2023-02-23T08:03:08;97954.56;;;11.49;100.00
13767;BME280;47980;48.794;9.176;2023-02-23T08:05:40;97949.22;;;11.61;99.73
13767;BME280;47980;48.794;9.176;2023-02-23T08:08:14;97950.22;;;11.56;98.50
13767;BME280;47980;48.794;9.176;2023-02-23T08:10:45;97952.69;;;11.37;98.07
13767;BME280;47980;48.794;9.176;2023-02-23T08:13:17;97952.75;;;10.79;100.00
13767;BME280;47980;48.794;9.176;2023-02-23T08:15:49;97958.09;;;11.04;100.00
13767;BME280;47980;48.794;9.176;2023-02-23T08:18:20;97953.47;;;11.13;100.00
13767;BME280;47980;48.794;9.176;2023-02-23T08:20:58;97954.69;;;11.16;100.00
13767;BME280;47980;48.794;9.176;2023-02-23T08:23:30;97953.53;;;10.80;100.00
13767;BME280;47980;48.794;9.176;2023-02-23T08:26:02;97954.22;;;11.38;100.00
13767;BME280;47980;48.794;9.176;2023-02-23T08:28:34;97951.13;;;11.36;100.00
13767;BME280;47980;48.794;9.176;2023-02-23T08:31:08;97947.91;;;11.43;100.00
13767;BME280;47980;48.794;9.176;2023-02-23T08:33:39;97957.75;;;11.54;100.00
13767;BME280;47980;48.794;9.176;2023-02-23T08:36:12;97946.25;;;11.63;99.96
13767;BME280;47980;48.794;9.176;2023-02-23T08:38:44;97952.53;;;11.70;100.00
13767;BME280;47980;48.794;9.176;2023-02-23T08:41:15;97947.72;;;12.00;97.68
13767;BME280;47980;48.794;9.176;2023-02-23T08:43:47;97960.19;;;12.12;97.25
13767;BME280;47980;48.794;9.176;2023-02-23T08:46:19;97954.56;;;12.14;95.35
13767;BME280;47980;48.794;9.176;2023-02-23T08:48:51;97959.06;;;12.25;94.80
13767;BME280;47980;48.794;9.176;2023-02-23T08:51:24;97962.09;;;12.40;93.02
13767;BME280;47980;48.794;9.176;2023-02-23T08:53:56;97961.03;;;12.57;89.88
13767;BME280;47980;48.794;9.176;2023-02-23T08:56:27;97961.81;;;12.29;89.53
13767;BME280;47980;48.794;9.176;2023-02-23T08:59:00;97961.56;;;12.34;91.01
13767;BME280;47980;48.794;9.176;2023-02-23T09:01:32;97962.50;;;11.73;93.74
13767;BME280;47980;48.794;9.176;2023-02-23T09:04:04;97960.66;;;12.14;93.38
13767;BME280;47980;48.794;9.176;2023-02-23T09:06:37;97963.94;;;11.95;91.68
13767;BME280;47980;48.794;9.176;2023-02-23T09:09:10;97970.03;;;11.71;95.45
13767;BME280;47980;48.794;9.176;2023-02-23T09:11:41;97973.56;;;11.75;96.25
13767;BME280;47980;48.794;9.176;2023-02-23T09:14:13;97973.38;;;11.44;97.17
13767;BME280;47980;48.794;9.176;2023-02-23T09:16:44;97970.38;;;11.70;96.33
13767;BME280;47980;48.794;9.176;2023-02-23T09:19:16;97963.63;;;11.85;93.74
13767;BME280;47980;48.794;9.176;2023-02-23T09:21:49;97969.75;;;12.01;95.32
13767;BME280;47980;48.794;9.176;2023-02-23T09:24:20;97968.22;;;12.00;93.16
13767;BME280;47980;48.794;9.176;2023-02-23T09:26:52;97966.28;;;12.13;91.88
13767;BME280;47980;48.794;9.176;2023-02-23T09:29:23;97969.94;;;12.20;92.05
13767;BME280;47980;48.794;9.176;2023-02-23T09:31:55;97963.69;;;12.28;91.19
13767;BME280;47980;48.794;9.176;2023-02-23T09:34:27;97972.09;;;12.31;92.46
13767;BME280;47980;48.794;9.176;2023-02-23T09:37:01;97967.97;;;12.17;91.53
13767;BME280;47980;48.794;9.176;2023-02-23T09:39:33;97971.59;;;12.69;87.46
13767;BME280;47980;48.794;9.176;2023-02-23T09:42:19;97973.09;;;12.98;86.77
13767;BME280;47980;48.794;9.176;2023-02-23T09:45:03;97968.53;;;12.83;85.67
13767;BME280;47980;48.794;9.176;2023-02-23T09:47:47;97974.38;;;12.88;87.19
13767;BME280;47980;48.794;9.176;2023-02-23T09:50:23;97969.38;;;12.71;87.84
13767;BME280;47980;48.794;9.176;2023-02-23T09:52:59;97970.03;;;13.28;83.85
13767;BME280;47980;48.794;9.176;2023-02-23T09:55:31;97968.03;;;13.09;83.13
13767;BME280;47980;48.794;9.176;2023-02-23T09:58:07;97966.38;;;12.28;88.65
13767;BME280;47980;48.794;9.176;2023-02-23T10:01:05;97973.09;;;12.38;87.69
13767;BME280;47980;48.794;9.176;2023-02-23T10:03:48;97971.91;;;12.23;87.08
13767;BME280;47980;48.794;9.176;2023-02-23T10:06:21;97974.25;;;12.53;87.90
13767;BME280;47980;48.794;9.176;2023-02-23T10:09:04;97966.72;;;12.71;86.41
13767;BME280;47980;48.794;9.176;2023-02-23T10:11:41;97976.13;;;12.24;87.97
13767;BME280;47980;48.794;9.176;2023-02-23T10:14:24;97976.81;;;12.49;86.69
13767;BME280;47980;48.794;9.176;2023-02-23T10:17:12;97975.84;;;12.42;85.79
13767;BME280;47980;48.794;9.176;2023-02-23T10:19:55;97970.97;;;13.04;85.73
13767;BME280;47980;48.794;9.176;2023-02-23T10:22:32;97970.88;;;13.00;84.94
13767;BME280;47980;48.794;9.176;2023-02-23T10:25:10;97964.38;;;13.29;83.20
13767;BME280;47980;48.794;9.176;2023-02-23T10:27:45;97967.34;;;13.28;82.17
13767;BME280;47980;48.794;9.176;2023-02-23T10:30:20;97962.03;;;13.79;80.52
13767;BME280;47980;48.794;9.176;2023-02-23T10:32:58;97964.81;;;14.02;78.95
13767;BME280;47980;48.794;9.176;2023-02-23T10:35:32;97965.53;;;13.83;79.02
13767;BME280;47980;48.794;9.176;2023-02-23T10:38:04;97965.00;;;13.93;79.26
13767;BME280;47980;48.794;9.176;2023-02-23T10:40:37;97964.16;;;14.08;79.15
13767;BME280;47980;48.794;9.176;2023-02-23T10:43:10;97967.72;;;14.16;77.54
13767;BME280;47980;48.794;9.176;2023-02-23T10:45:45;97966.72;;;13.85;77.36
13767;BME280;47980;48.794;9.176;2023-02-23T10:48:19;97970.44;;;13.81;79.07
13767;BME280;47980;48.794;9.176;2023-02-23T10:50:55;97972.00;;;13.82;79.04
13767;BME280;47980;48.794;9.176;2023-02-23T10:53:32;97969.78;;;13.68;78.79
13767;BME280;47980;48.794;9.176;2023-02-23T10:56:08;97972.72;;;13.63;77.00
13767;BME280;47980;48.794;9.176;2023-02-23T10:58:43;97968.53;;;13.46;78.87
13767;BME280;47980;48.794;9.176;2023-02-23T11:01:29;97966.22;;;13.80;78.59
13767;BME280;47980;48.794;9.176;2023-02-23T11:04:12;97965.00;;;13.93;77.98
13767;BME280;47980;48.794;9.176;2023-02-23T11:06:46;97966.19;;;13.95;76.39
13767;BME280;47980;48.794;9.176;2023-02-23T11:09:23;97958.31;;;14.41;76.72
13767;BME280;47980;48.794;9.176;2023-02-23T11:11:59;97956.63;;;14.33;76.60
13767;BME280;47980;48.794;9.176;2023-02-23T11:14:31;97956.91;;;13.89;76.53
13767;BME280;47980;48.794;9.176;2023-02-23T11:17:03;97954.81;;;13.99;75.68
13767;BME280;47980;48.794;9.176;2023-02-23T11:19:36;97949.59;;;13.86;77.39
13767;BME280;47980;48.794;9.176;2023-02-23T11:22:18;97955.16;;;14.36;75.35
13767;BME280;47980;48.794;9.176;2023-02-23T11:24:52;97946.19;;;14.25;74.93
13767;BME280;47980;48.794;9.176;2023-02-23T11:27:26;97946.25;;;14.67;72.05
13767;BME280;47980;48.794;9.176;2023-02-23T11:30:03;97941.81;;;14.55;72.46
13767;BME280;47980;48.794;9.176;2023-02-23T11:32:36;97941.19;;;14.42;72.96
13767;BME280;47980;48.794;9.176;2023-02-23T11:35:28;97941.59;;;13.86;75.55
13767;BME280;47980;48.794;9.176;2023-02-23T11:38:14;97939.44;;;14.31;73.27
13767;BME280;47980;48.794;9.176;2023-02-23T11:40:57;97927.22;;;14.49;71.45
13767;BME280;47980;48.794;9.176;2023-02-23T11:43:30;97924.53;;;14.30;72.79
13767;BME280;47980;48.794;9.176;2023-02-23T11:46:02;97921.00;;;14.45;71.85
13767;BME280;47980;48.794;9.176;2023-02-23T11:48:40;97921.34;;;14.63;71.62
13767;BME280;47980;48.794;9.176;2023-02-23T11:51:22;97927.31;;;14.53;72.54
13767;BME280;47980;48.794;9.176;2023-02-23T11:53:54;97918.50;;;14.52;72.07
13767;BME280;47980;48.794;9.176;2023-02-23T11:56:28;97918.88;;;14.51;70.30
13767;BME280;47980;48.794;9.176;2023-02-23T11:59:04;97919.41;;;14.83;70.38
13767;BME280;47980;48.794;9.176;2023-02-23T12:01:40;97914.28;;;14.51;69.79
13767;BME280;47980;48.794;9.176;2023-02-23T12:04:27;97909.59;;;14.25;70.74
13767;BME280;47980;48.794;9.176;2023-02-23T12:07:26;97913.16;;;14.33;70.75
13767;BME280;47980;48.794;9.176;2023-02-23T12:10:12;97910.34;;;14.64;71.84
13767;BME280;47980;48.794;9.176;2023-02-23T12:12:52;97908.91;;;14.71;68.54
13767;BME280;47980;48.794;9.176;2023-02-23T12:15:35;97908.50;;;14.68;67.71
13767;BME280;47980;48.794;9.176;2023-02-23T12:18:16;97906.28;;;14.97;67.01
13767;BME280;47980;48.794;9.176;2023-02-23T12:20:50;97907.47;;;14.77;69.06
13767;BME280;47980;48.794;9.176;2023-02-23T12:23:26;97904.38;;;14.98;67.99
13767;BME280;47980;48.794;9.176;2023-02-23T12:26:05;97894.66;;;14.86;68.47
13767;BME280;47980;48.794;9.176;2023-02-23T12:28:46;97896.22;;;14.64;70.03
13767;BME280;47980;48.794;9.176;2023-02-23T12:31:25;97896.47;;;14.36;68.51
13767;BME280;47980;48.794;9.176;2023-02-23T12:34:02;97897.50;;;14.74;65.47
13767;BME280;47980;48.794;9.176;2023-02-23T12:36:41;97890.09;;;14.63;65.63
13767;BME280;47980;48.794;9.176;2023-02-23T12:39:20;97894.50;;;14.75;65.60
13767;BME280;47980;48.794;9.176;2023-02-23T12:41:59;97890.03;;;14.83;66.61
13767;BME280;47980;48.794;9.176;2023-02-23T12:44:38;97891.44;;;14.77;67.28
13767;BME280;47980;48.794;9.176;2023-02-23T12:47:20;97885.47;;;14.60;66.81
13767;BME280;47980;48.794;9.176;2023-02-23T12:49:56;97887.44;;;14.63;66.85
13767;BME280;47980;48.794;9.176;2023-02-23T12:52:41;97884.81;;;14.90;65.13
13767;BME280;47980;48.794;9.176;2023-02-23T12:55:15;97882.84;;;14.87;64.81
13767;BME280;47980;48.794;9.176;2023-02-23T12:57:54;97883.06;;;15.28;63.28
13767;BME280;47980;48.794;9.176;2023-02-23T13:00:44;97869.69;;;15.54;63.10
13767;BME280;47980;48.794;9.176;2023-02-23T13:03:36;97872.69;;;14.96;64.96
13767;BME280;47980;48.794;9.176;2023-02-23T13:06:19;97877.34;;;14.76;65.82
13767;BME280;47980;48.794;9.176;2023-02-23T13:08:59;97880.91;;;15.10;64.13
13767;BME280;47980;48.794;9.176;2023-02-23T13:11:48;97875.69;;;14.68;66.20
13767;BME280;47980;48.794;9.176;2023-02-23T13:14:27;97871.88;;;14.69;66.04
13767;BME280;47980;48.794;9.176;2023-02-23T13:17:05;97882.50;;;14.65;66.51
13767;BME280;47980;48.794;9.176;2023-02-23T13:19:46;97877.88;;;14.62;66.96
13767;BME280;47980;48.794;9.176;2023-02-23T13:22:27;97886.06;;;14.50;67.94
13767;BME280;47980;48.794;9.176;2023-02-23T13:25:03;97875.69;;;14.49;68.38
13767;BME280;47980;48.794;9.176;2023-02-23T13:27:47;97878.88;;;14.54;68.65
13767;BME280;47980;48.794;9.176;2023-02-23T13:30:21;97874.75;;;14.57;69.17
13767;BME280;47980;48.794;9.176;2023-02-23T13:32:53;97876.22;;;14.54;69.28
13767;BME280;47980;48.794;9.176;2023-02-23T13:35:29;97877.81;;;14.82;68.05
13767;BME280;47980;48.794;9.176;2023-02-23T13:38:11;97872.91;;;14.61;68.90
13767;BME280;47980;48.794;9.176;2023-02-23T13:40:49;97869.56;;;14.25;70.44
13767;BME280;47980;48.794;9.176;2023-02-23T13:43:28;97875.06;;;14.55;70.14
13767;BME280;47980;48.794;9.176;2023-02-23T13:46:18;97878.31;;;14.03;71.81
13767;BME280;47980;48.794;9.176;2023-02-23T13:48:56;97871.56;;;13.89;72.15
13767;BME280;47980;48.794;9.176;2023-02-23T13:51:34;97871.38;;;13.98;71.86
13767;BME280;47980;48.794;9.176;2023-02-23T13:54:22;97871.16;;;14.07;71.69
13767;BME280;47980;48.794;9.176;2023-02-23T13:56:55;97868.97;;;13.93;72.52
13767;BME280;47980;48.794;9.176;2023-02-23T13:59:29;97872.06;;;14.14;71.52
13767;BME280;47980;48.794;9.176;2023-02-23T14:02:19;97874.41;;;14.19;71.46
13767;BME280;47980;48.794;9.176;2023-02-23T14:04:56;97876.38;;;14.23;71.18
13767;BME280;47980;48.794;9.176;2023-02-23T14:07:30;97859.50;;;13.95;71.39